sensor_id;sensor_type;location;lat;lon;timestamp;P1;durP1;ratioP1;P2;durP2;ratioP2
9409;SDS011;4744;52.576;13.568;2022-11-18T00:00:05;14.65;;;12.85;;
9409;SDS011;4744;52.576;13.568;2022-11-18T00:02:33;16.33;;;13.82;;
9409;SDS011;4744;52.576;13.568;2022-11-18T00:05:00;15.38;;;13.05;;
9409;SDS011;4744;52.576;13.568;2022-11-18T00:07:27;16.52;;;13.70;;
9409;SDS011;4744;52.576;13.568;2022-11-18T00:09:53;14.35;;;12.82;;
9409;SDS011;4744;52.576;13.568;2022-11-18T00:12:20;15.25;;;13.65;;
9409;SDS011;4744;52.576;13.568;2022-11-18T00:15:06;14.82;;;13.23;;
9409;SDS011;4744;52.576;13.568;2022-11-18T00:17:33;14.35;;;12.85;;
9409;SDS011;4744;52.576;13.568;2022-11-18T00:20:00;14.35;;;12.85;;
9409;SDS011;4744;52.576;13.568;2022-11-18T00:22:27;16.20;;;14.50;;
9409;SDS011;4744;52.576;13.568;2022-11-18T00:24:54;15.02;;;13.43;;
9409;SDS011;4744;52.576;13.568;2022-11-18T00:27:21;17.20;;;14.55;;
9409;SDS011;4744;52.576;13.568;2022-11-18T00:29:48;14.52;;;13.05;;
9409;SDS011;4744;52.576;13.568;2022-11-18T00:32:16;14.52;;;12.90;;
9409;SDS011;4744;52.576;13.568;2022-11-18T00:34:43;15.93;;;14.05;;
9409;SDS011;4744;52.576;13.568;2022-11-18T00:37:10;17.20;;;13.70;;
9409;SDS011;4744;52.576;13.568;2022-11-18T00:39:37;15.52;;;13.43;;
9409;SDS011;4744;52.576;13.568;2022-11-18T00:42:04;15.48;;;13.98;;
9409;SDS011;4744;52.576;13.568;2022-11-18T00:44:48;16.35;;;13.73;;
9409;SDS011;4744;52.576;13.568;2022-11-18T00:47:16;15.50;;;13.90;;
9409;SDS011;4744;52.576;13.568;2022-11-18T00:49:43;14.75;;;13.15;;
9409;SDS011;4744;52.576;13.568;2022-11-18T00:52:10;15.75;;;14.05;;
9409;SDS011;4744;52.576;13.568;2022-11-18T00:54:37;15.13;;;13.52;;
9409;SDS011;4744;52.576;13.568;2022-11-18T00:57:04;15.77;;;13.77;;
9409;SDS011;4744;52.576;13.568;2022-11-18T00:59:31;14.95;;;13.38;;
9409;SDS011;4744;52.576;13.568;2022-11-18T01:01:58;16.05;;;14.35;;
9409;SDS011;4744;52.576;13.568;2022-11-18T01:04:26;15.60;;;14.00;;
9409;SDS011;4744;52.576;13.568;2022-11-18T01:06:53;15.25;;;13.65;;
9409;SDS011;4744;52.576;13.568;2022-11-18T01:09:20;15.70;;;14.10;;
9409;SDS011;4744;52.576;13.568;2022-11-18T01:11:47;15.77;;;13.98;;
9409;SDS011;4744;52.576;13.568;2022-11-18T01:14:31;15.90;;;14.30;;
9409;SDS011;4744;52.576;13.568;2022-11-18T01:16:58;16.33;;;13.95;;
9409;SDS011;4744;52.576;13.568;2022-11-18T01:19:26;16.63;;;14.80;;
9409;SDS011;4744;52.576;13.568;2022-11-18T01:21:53;16.85;;;14.00;;
9409;SDS011;4744;52.576;13.568;2022-11-18T01:24:21;15.60;;;13.98;;
9409;SDS011;4744;52.576;13.568;2022-11-18T01:26:47;14.63;;;13.05;;
9409;SDS011;4744;52.576;13.568;2022-11-18T01:29:14;17.08;;;14.70;;
9409;SDS011;4744;52.576;13.568;2022-11-18T01:31:42;14.93;;;13.35;;
9409;SDS011;4744;52.576;13.568;2022-11-18T01:34:09;15.82;;;14.10;;
9409;SDS011;4744;52.576;13.568;2022-11-18T01:36:37;16.17;;;14.40;;
9409;SDS011;4744;52.576;13.568;2022-11-18T01:39:04;15.70;;;14.18;;
9409;SDS011;4744;52.576;13.568;2022-11-18T01:41:31;16.38;;;14.18;;
9409;SDS011;4744;52.576;13.568;2022-11-18T01:44:00;15.18;;;13.57;;
9409;SDS011;4744;52.576;13.568;2022-11-18T01:46:28;16.05;;;13.60;;
9409;SDS011;4744;52.576;13.568;2022-11-18T01:48:58;15.57;;;14.07;;
9409;SDS011;4744;52.576;13.568;2022-11-18T01:51:28;15.67;;;14.07;;
9409;SDS011;4744;52.576;13.568;2022-11-18T01:54:00;15.05;;;13.45;;
9409;SDS011;4744;52.576;13.568;2022-11-18T01:56:32;15.75;;;13.90;;
9409;SDS011;4744;52.576;13.568;2022-11-18T01:59:06;15.85;;;13.73;;
9409;SDS011;4744;52.576;13.568;2022-11-18T02:01:37;15.52;;;14.00;;
9409;SDS011;4744;52.576;13.568;2022-11-18T02:04:04;15.23;;;13.63;;
9409;SDS011;4744;52.576;13.568;2022-11-18T02:06:32;15.57;;;13.80;;
9409;SDS011;4744;52.576;13.568;2022-11-18T02:09:01;15.45;;;13.38;;
9409;SDS011;4744;52.576;13.568;2022-11-18T02:11:29;13.77;;;12.32;;
9409;SDS011;4744;52.576;13.568;2022-11-18T02:14:15;15.05;;;13.45;;
9409;SDS011;4744;52.576;13.568;2022-11-18T02:16:50;15.20;;;13.52;;
9409;SDS011;4744;52.576;13.568;2022-11-18T02:22:27;14.87;;;13.37;;
9409;SDS011;4744;52.576;13.568;2022-11-18T02:25:12;15.43;;;13.82;;
9409;SDS011;4744;52.576;13.568;2022-11-18T02:28:04;16.25;;;14.65;;
9409;SDS011;4744;52.576;13.568;2022-11-18T02:30:47;16.05;;;14.32;;
9409;SDS011;4744;52.576;13.568;2022-11-18T02:33:21;16.58;;;14.48;;
9409;SDS011;4744;52.576;13.568;2022-11-18T02:35:52;14.95;;;13.45;;
9409;SDS011;4744;52.576;13.568;2022-11-18T02:38:22;15.43;;;13.82;;
9409;SDS011;4744;52.576;13.568;2022-11-18T02:40:54;15.70;;;13.90;;
9409;SDS011;4744;52.576;13.568;2022-11-18T02:43:24;15.70;;;14.10;;
9409;SDS011;4744;52.576;13.568;2022-11-18T02:45:57;17.05;;;15.25;;
9409;SDS011;4744;52.576;13.568;2022-11-18T02:48:28;16.48;;;14.77;;
9409;SDS011;4744;52.576;13.568;2022-11-18T02:50:58;17.05;;;15.10;;
9409;SDS011;4744;52.576;13.568;2022-11-18T02:53:28;17.17;;;14.93;;
9409;SDS011;4744;52.576;13.568;2022-11-18T02:55:58;16.13;;;14.50;;
9409;SDS011;4744;52.576;13.568;2022-11-18T02:58:26;15.48;;;13.88;;
9409;SDS011;4744;52.576;13.568;2022-11-18T03:00:54;16.35;;;14.65;;
9409;SDS011;4744;52.576;13.568;2022-11-18T03:03:27;16.60;;;14.82;;
9409;SDS011;4744;52.576;13.568;2022-11-18T03:05:59;15.88;;;14.18;;
9409;SDS011;4744;52.576;13.568;2022-11-18T03:08:34;17.58;;;15.65;;
9409;SDS011;4744;52.576;13.568;2022-11-18T03:11:06;17.87;;;15.37;;
9409;SDS011;4744;52.576;13.568;2022-11-18T03:13:41;16.63;;;14.93;;
9409;SDS011;4744;52.576;13.568;2022-11-18T03:16:16;17.50;;;15.52;;
9409;SDS011;4744;52.576;13.568;2022-11-18T03:18:51;17.07;;;15.27;;
9409;SDS011;4744;52.576;13.568;2022-11-18T03:21:23;19.57;;;15.63;;
9409;SDS011;4744;52.576;13.568;2022-11-18T03:23:58;18.93;;;16.13;;
9409;SDS011;4744;52.576;13.568;2022-11-18T03:26:34;17.70;;;15.77;;
9409;SDS011;4744;52.576;13.568;2022-11-18T03:29:03;18.27;;;16.02;;
9409;SDS011;4744;52.576;13.568;2022-11-18T03:31:39;18.33;;;16.23;;
9409;SDS011;4744;52.576;13.568;2022-11-18T03:34:13;20.03;;;17.77;;
9409;SDS011;4744;52.576;13.568;2022-11-18T03:36:46;19.05;;;16.75;;
9409;SDS011;4744;52.576;13.568;2022-11-18T03:39:16;21.73;;;16.93;;
9409;SDS011;4744;52.576;13.568;2022-11-18T03:41:47;20.87;;;17.17;;
9409;SDS011;4744;52.576;13.568;2022-11-18T03:44:18;23.07;;;19.50;;
9409;SDS011;4744;52.576;13.568;2022-11-18T03:46:49;21.90;;;19.03;;
9409;SDS011;4744;52.576;13.568;2022-11-18T03:49:23;19.93;;;17.57;;
9409;SDS011;4744;52.576;13.568;2022-11-18T03:51:55;21.33;;;18.57;;
9409;SDS011;4744;52.576;13.568;2022-11-18T03:54:28;22.58;;;18.92;;
9409;SDS011;4744;52.576;13.568;2022-11-18T03:56:56;23.98;;;20.08;;
9409;SDS011;4744;52.576;13.568;2022-11-18T03:59:28;23.57;;;18.93;;
9409;SDS011;4744;52.576;13.568;2022-11-18T04:02:02;22.63;;;19.03;;
9409;SDS011;4744;52.576;13.568;2022-11-18T04:04:35;22.77;;;18.90;;
9409;SDS011;4744;52.576;13.568;2022-11-18T04:07:04;23.80;;;20.30;;
9409;SDS011;4744;52.576;13.568;2022-11-18T04:09:36;24.00;;;19.30;;
9409;SDS011;4744;52.576;13.568;2022-11-18T04:12:10;24.85;;;19.90;;
9409;SDS011;4744;52.576;13.568;2022-11-18T04:14:41;26.65;;;21.02;;
9409;SDS011;4744;52.576;13.568;2022-11-18T04:17:10;25.57;;;20.17;;
9409;SDS011;4744;52.576;13.568;2022-11-18T04:19:40;24.58;;;19.92;;
9409;SDS011;4744;52.576;13.568;2022-11-18T04:22:07;26.00;;;20.20;;
9409;SDS011;4744;52.576;13.568;2022-11-18T04:24:35;28.05;;;20.92;;
9409;SDS011;4744;52.576;13.568;2022-11-18T04:27:02;25.83;;;21.20;;
9409;SDS011;4744;52.576;13.568;2022-11-18T04:29:30;24.73;;;20.47;;
9409;SDS011;4744;52.576;13.568;2022-11-18T04:31:57;27.35;;;21.23;;
9409;SDS011;4744;52.576;13.568;2022-11-18T04:34:24;25.77;;;20.83;;
9409;SDS011;4744;52.576;13.568;2022-11-18T04:36:53;27.73;;;21.23;;
9409;SDS011;4744;52.576;13.568;2022-11-18T04:39:20;24.37;;;20.20;;
9409;SDS011;4744;52.576;13.568;2022-11-18T04:41:47;25.15;;;20.45;;
9409;SDS011;4744;52.576;13.568;2022-11-18T04:44:20;25.87;;;20.30;;
9409;SDS011;4744;52.576;13.568;2022-11-18T04:46:48;23.20;;;19.65;;
9409;SDS011;4744;52.576;13.568;2022-11-18T04:49:15;24.73;;;19.80;;
9409;SDS011;4744;52.576;13.568;2022-11-18T04:51:42;25.30;;;19.77;;
9409;SDS011;4744;52.576;13.568;2022-11-18T04:54:11;22.87;;;18.50;;
9409;SDS011;4744;52.576;13.568;2022-11-18T04:56:38;23.27;;;19.17;;
9409;SDS011;4744;52.576;13.568;2022-11-18T04:59:05;22.43;;;18.60;;
9409;SDS011;4744;52.576;13.568;2022-11-18T05:01:33;23.23;;;19.43;;
9409;SDS011;4744;52.576;13.568;2022-11-18T05:04:00;23.85;;;19.23;;
9409;SDS011;4744;52.576;13.568;2022-11-18T05:06:28;22.63;;;18.47;;
9409;SDS011;4744;52.576;13.568;2022-11-18T05:08:56;22.92;;;19.00;;
9409;SDS011;4744;52.576;13.568;2022-11-18T05:11:25;23.17;;;17.83;;
9409;SDS011;4744;52.576;13.568;2022-11-18T05:14:10;22.50;;;17.47;;
9409;SDS011;4744;52.576;13.568;2022-11-18T05:16:37;21.87;;;17.63;;
9409;SDS011;4744;52.576;13.568;2022-11-18T05:19:05;21.77;;;18.30;;
9409;SDS011;4744;52.576;13.568;2022-11-18T05:21:32;23.60;;;18.43;;
9409;SDS011;4744;52.576;13.568;2022-11-18T05:23:58;22.77;;;17.97;;
9409;SDS011;4744;52.576;13.568;2022-11-18T05:26:27;21.20;;;17.33;;
9409;SDS011;4744;52.576;13.568;2022-11-18T05:28:54;18.97;;;16.53;;
9409;SDS011;4744;52.576;13.568;2022-11-18T05:31:21;20.50;;;17.40;;
9409;SDS011;4744;52.576;13.568;2022-11-18T05:33:49;18.77;;;15.70;;
9409;SDS011;4744;52.576;13.568;2022-11-18T05:36:17;18.70;;;16.20;;
9409;SDS011;4744;52.576;13.568;2022-11-18T05:38:45;18.23;;;14.53;;
9409;SDS011;4744;52.576;13.568;2022-11-18T05:41:12;17.30;;;15.37;;
9409;SDS011;4744;52.576;13.568;2022-11-18T05:44:01;16.27;;;13.93;;
9409;SDS011;4744;52.576;13.568;2022-11-18T05:46:28;17.67;;;15.00;;
9409;SDS011;4744;52.576;13.568;2022-11-18T05:48:56;16.07;;;13.70;;
9409;SDS011;4744;52.576;13.568;2022-11-18T05:51:23;16.07;;;13.70;;
9409;SDS011;4744;52.576;13.568;2022-11-18T05:53:50;16.13;;;13.80;;
9409;SDS011;4744;52.576;13.568;2022-11-18T05:56:18;14.80;;;13.10;;
9409;SDS011;4744;52.576;13.568;2022-11-18T05:58:47;15.00;;;13.27;;
9409;SDS011;4744;52.576;13.568;2022-11-18T06:01:15;16.55;;;12.80;;
9409;SDS011;4744;52.576;13.568;2022-11-18T06:03:46;14.50;;;12.97;;
9409;SDS011;4744;52.576;13.568;2022-11-18T06:06:14;13.73;;;12.13;;
9409;SDS011;4744;52.576;13.568;2022-11-18T06:08:47;14.97;;;13.37;;
9409;SDS011;4744;52.576;13.568;2022-11-18T06:11:20;13.60;;;12.13;;
9409;SDS011;4744;52.576;13.568;2022-11-18T06:13:49;15.60;;;13.13;;
9409;SDS011;4744;52.576;13.568;2022-11-18T06:16:22;14.27;;;12.03;;
9409;SDS011;4744;52.576;13.568;2022-11-18T06:18:53;15.73;;;13.17;;
9409;SDS011;4744;52.576;13.568;2022-11-18T06:21:20;14.90;;;12.30;;
9409;SDS011;4744;52.576;13.568;2022-11-18T06:23:47;14.00;;;11.97;;
9409;SDS011;4744;52.576;13.568;2022-11-18T06:26:15;13.67;;;12.17;;
9409;SDS011;4744;52.576;13.568;2022-11-18T06:28:43;14.33;;;12.53;;
9409;SDS011;4744;52.576;13.568;2022-11-18T06:31:12;17.30;;;12.83;;
9409;SDS011;4744;52.576;13.568;2022-11-18T06:33:42;14.80;;;13.20;;
9409;SDS011;4744;52.576;13.568;2022-11-18T06:36:08;15.60;;;12.07;;
9409;SDS011;4744;52.576;13.568;2022-11-18T06:38:35;15.40;;;12.50;;
9409;SDS011;4744;52.576;13.568;2022-11-18T06:41:03;16.73;;;12.80;;
9409;SDS011;4744;52.576;13.568;2022-11-18T06:43:29;14.33;;;12.77;;
9409;SDS011;4744;52.576;13.568;2022-11-18T06:46:06;15.17;;;12.20;;
9409;SDS011;4744;52.576;13.568;2022-11-18T06:48:53;16.70;;;13.90;;
9409;SDS011;4744;52.576;13.568;2022-11-18T06:51:21;14.93;;;13.00;;
9409;SDS011;4744;52.576;13.568;2022-11-18T06:53:48;15.83;;;12.80;;
9409;SDS011;4744;52.576;13.568;2022-11-18T06:56:15;15.23;;;12.57;;
9409;SDS011;4744;52.576;13.568;2022-11-18T06:58:43;15.80;;;13.20;;
9409;SDS011;4744;52.576;13.568;2022-11-18T07:01:11;15.53;;;13.70;;
9409;SDS011;4744;52.576;13.568;2022-11-18T07:03:39;16.37;;;13.40;;
9409;SDS011;4744;52.576;13.568;2022-11-18T07:06:09;15.50;;;13.27;;
9409;SDS011;4744;52.576;13.568;2022-11-18T07:08:37;15.93;;;13.90;;
9409;SDS011;4744;52.576;13.568;2022-11-18T07:11:06;15.33;;;13.30;;
9409;SDS011;4744;52.576;13.568;2022-11-18T07:13:35;15.90;;;13.27;;
9409;SDS011;4744;52.576;13.568;2022-11-18T07:16:03;15.17;;;12.57;;
9409;SDS011;4744;52.576;13.568;2022-11-18T07:18:31;14.17;;;12.67;;
9409;SDS011;4744;52.576;13.568;2022-11-18T07:21:02;15.20;;;13.13;;
9409;SDS011;4744;52.576;13.568;2022-11-18T07:23:31;14.97;;;13.20;;
9409;SDS011;4744;52.576;13.568;2022-11-18T07:25:59;16.47;;;13.43;;
9409;SDS011;4744;52.576;13.568;2022-11-18T07:28:26;16.13;;;13.60;;
9409;SDS011;4744;52.576;13.568;2022-11-18T07:30:59;16.40;;;13.33;;
9409;SDS011;4744;52.576;13.568;2022-11-18T07:33:27;16.50;;;13.80;;
9409;SDS011;4744;52.576;13.568;2022-11-18T07:35:54;17.50;;;12.50;;
9409;SDS011;4744;52.576;13.568;2022-11-18T07:38:21;16.50;;;13.77;;
9409;SDS011;4744;52.576;13.568;2022-11-18T07:40:49;16.30;;;13.60;;
9409;SDS011;4744;52.576;13.568;2022-11-18T07:43:16;17.07;;;13.17;;
9409;SDS011;4744;52.576;13.568;2022-11-18T07:45:43;18.17;;;14.10;;
9409;SDS011;4744;52.576;13.568;2022-11-18T07:48:10;15.70;;;12.70;;
9409;SDS011;4744;52.576;13.568;2022-11-18T07:50:36;17.63;;;13.40;;
9409;SDS011;4744;52.576;13.568;2022-11-18T07:53:03;17.13;;;13.87;;
9409;SDS011;4744;52.576;13.568;2022-11-18T07:55:30;16.07;;;13.23;;
9409;SDS011;4744;52.576;13.568;2022-11-18T07:57:58;17.40;;;13.13;;
9409;SDS011;4744;52.576;13.568;2022-11-18T08:00:25;15.80;;;13.00;;
9409;SDS011;4744;52.576;13.568;2022-11-18T08:02:52;15.07;;;12.20;;
9409;SDS011;4744;52.576;13.568;2022-11-18T08:05:19;15.17;;;12.57;;
9409;SDS011;4744;52.576;13.568;2022-11-18T08:07:46;15.07;;;13.00;;
9409;SDS011;4744;52.576;13.568;2022-11-18T08:10:13;14.93;;;12.93;;
9409;SDS011;4744;52.576;13.568;2022-11-18T08:12:40;14.10;;;12.60;;
9409;SDS011;4744;52.576;13.568;2022-11-18T08:15:09;16.80;;;12.97;;
9409;SDS011;4744;52.576;13.568;2022-11-18T08:17:36;15.63;;;12.43;;
9409;SDS011;4744;52.576;13.568;2022-11-18T08:20:03;14.73;;;11.93;;
9409;SDS011;4744;52.576;13.568;2022-11-18T08:22:30;13.77;;;12.23;;
9409;SDS011;4744;52.576;13.568;2022-11-18T08:24:57;14.00;;;12.23;;
9409;SDS011;4744;52.576;13.568;2022-11-18T08:27:24;14.43;;;12.40;;
9409;SDS011;4744;52.576;13.568;2022-11-18T08:29:51;14.57;;;12.50;;
9409;SDS011;4744;52.576;13.568;2022-11-18T08:32:19;13.30;;;11.90;;
9409;SDS011;4744;52.576;13.568;2022-11-18T08:34:46;13.43;;;12.03;;
9409;SDS011;4744;52.576;13.568;2022-11-18T08:37:13;15.33;;;12.13;;
9409;SDS011;4744;52.576;13.568;2022-11-18T08:39:40;13.67;;;11.90;;
9409;SDS011;4744;52.576;13.568;2022-11-18T08:42:07;13.60;;;11.67;;
9409;SDS011;4744;52.576;13.568;2022-11-18T08:44:35;13.97;;;11.87;;
9409;SDS011;4744;52.576;13.568;2022-11-18T08:47:01;16.13;;;11.90;;
9409;SDS011;4744;52.576;13.568;2022-11-18T08:49:30;14.17;;;12.10;;
9409;SDS011;4744;52.576;13.568;2022-11-18T08:51:56;13.97;;;11.90;;
9409;SDS011;4744;52.576;13.568;2022-11-18T08:54:23;13.23;;;11.47;;
9409;SDS011;4744;52.576;13.568;2022-11-18T08:56:50;13.20;;;11.80;;
9409;SDS011;4744;52.576;13.568;2022-11-18T08:59:17;12.73;;;11.30;;
9409;SDS011;4744;52.576;13.568;2022-11-18T09:01:44;13.10;;;11.40;;
9409;SDS011;4744;52.576;13.568;2022-11-18T09:04:12;12.20;;;10.90;;
9409;SDS011;4744;52.576;13.568;2022-11-18T09:06:40;12.60;;;11.03;;
9409;SDS011;4744;52.576;13.568;2022-11-18T09:09:08;14.03;;;11.07;;
9409;SDS011;4744;52.576;13.568;2022-11-18T09:11:35;12.83;;;10.73;;
9409;SDS011;4744;52.576;13.568;2022-11-18T09:14:04;11.90;;;10.33;;
9409;SDS011;4744;52.576;13.568;2022-11-18T09:16:31;12.90;;;10.87;;
9409;SDS011;4744;52.576;13.568;2022-11-18T09:19:00;14.60;;;12.30;;
9409;SDS011;4744;52.576;13.568;2022-11-18T09:21:27;10.50;;;9.40;;
9409;SDS011;4744;52.576;13.568;2022-11-18T09:23:55;11.90;;;10.40;;
9409;SDS011;4744;52.576;13.568;2022-11-18T09:26:22;10.05;;;8.57;;
9409;SDS011;4744;52.576;13.568;2022-11-18T09:28:51;9.13;;;8.20;;
9409;SDS011;4744;52.576;13.568;2022-11-18T09:31:19;8.90;;;7.77;;
9409;SDS011;4744;52.576;13.568;2022-11-18T09:33:46;8.63;;;7.30;;
9409;SDS011;4744;52.576;13.568;2022-11-18T09:36:14;7.20;;;6.47;;
9409;SDS011;4744;52.576;13.568;2022-11-18T09:38:41;8.57;;;6.30;;
9409;SDS011;4744;52.576;13.568;2022-11-18T09:41:15;7.43;;;6.67;;
9409;SDS011;4744;52.576;13.568;2022-11-18T09:43:54;8.43;;;6.47;;
9409;SDS011;4744;52.576;13.568;2022-11-18T09:46:32;6.33;;;5.73;;
9409;SDS011;4744;52.576;13.568;2022-11-18T09:49:09;7.63;;;6.07;;
9409;SDS011;4744;52.576;13.568;2022-11-18T09:51:40;6.83;;;5.93;;
9409;SDS011;4744;52.576;13.568;2022-11-18T09:54:09;5.93;;;5.37;;
9409;SDS011;4744;52.576;13.568;2022-11-18T09:56:39;6.13;;;5.53;;
9409;SDS011;4744;52.576;13.568;2022-11-18T09:59:08;5.43;;;4.93;;
9409;SDS011;4744;52.576;13.568;2022-11-18T10:01:38;6.30;;;5.03;;
9409;SDS011;4744;52.576;13.568;2022-11-18T10:04:10;5.93;;;5.37;;
9409;SDS011;4744;52.576;13.568;2022-11-18T10:06:39;6.43;;;5.27;;
9409;SDS011;4744;52.576;13.568;2022-11-18T10:09:09;5.60;;;5.10;;
9409;SDS011;4744;52.576;13.568;2022-11-18T10:11:49;5.67;;;5.17;;
9409;SDS011;4744;52.576;13.568;2022-11-18T10:14:34;5.33;;;4.80;;
9409;SDS011;4744;52.576;13.568;2022-11-18T10:17:15;6.97;;;5.13;;
9409;SDS011;4744;52.576;13.568;2022-11-18T10:20:05;6.10;;;5.10;;
9409;SDS011;4744;52.576;13.568;2022-11-18T10:22:45;5.30;;;4.80;;
9409;SDS011;4744;52.576;13.568;2022-11-18T10:25:17;6.37;;;5.43;;
9409;SDS011;4744;52.576;13.568;2022-11-18T10:27:47;5.10;;;4.70;;
9409;SDS011;4744;52.576;13.568;2022-11-18T10:30:16;5.60;;;5.10;;
9409;SDS011;4744;52.576;13.568;2022-11-18T10:32:54;5.30;;;4.80;;
9409;SDS011;4744;52.576;13.568;2022-11-18T10:35:24;6.03;;;5.00;;
9409;SDS011;4744;52.576;13.568;2022-11-18T10:38:00;5.27;;;4.77;;
9409;SDS011;4744;52.576;13.568;2022-11-18T10:40:30;5.37;;;4.87;;
9409;SDS011;4744;52.576;13.568;2022-11-18T10:43:00;5.85;;;5.30;;
9409;SDS011;4744;52.576;13.568;2022-11-18T10:45:28;6.63;;;5.90;;
9409;SDS011;4744;52.576;13.568;2022-11-18T10:47:57;6.20;;;5.60;;
9409;SDS011;4744;52.576;13.568;2022-11-18T10:50:30;8.40;;;6.00;;
9409;SDS011;4744;52.576;13.568;2022-11-18T10:52:58;6.43;;;5.83;;
9409;SDS011;4744;52.576;13.568;2022-11-18T10:55:26;6.43;;;5.80;;
9409;SDS011;4744;52.576;13.568;2022-11-18T10:57:57;5.93;;;5.33;;
9409;SDS011;4744;52.576;13.568;2022-11-18T11:00:32;6.03;;;5.43;;
9409;SDS011;4744;52.576;13.568;2022-11-18T11:03:19;6.20;;;5.60;;
9409;SDS011;4744;52.576;13.568;2022-11-18T11:08:46;7.00;;;6.30;;
9409;SDS011;4744;52.576;13.568;2022-11-18T11:11:20;6.97;;;6.27;;
9409;SDS011;4744;52.576;13.568;2022-11-18T11:14:10;6.60;;;6.00;;
9409;SDS011;4744;52.576;13.568;2022-11-18T11:16:46;6.67;;;5.97;;
9409;SDS011;4744;52.576;13.568;2022-11-18T11:19:17;7.43;;;5.90;;
9409;SDS011;4744;52.576;13.568;2022-11-18T11:21:47;6.80;;;6.10;;
9409;SDS011;4744;52.576;13.568;2022-11-18T11:24:14;7.03;;;6.30;;
9409;SDS011;4744;52.576;13.568;2022-11-18T11:26:45;6.63;;;6.03;;
9409;SDS011;4744;52.576;13.568;2022-11-18T11:29:33;7.38;;;6.20;;
9409;SDS011;4744;52.576;13.568;2022-11-18T11:32:18;6.83;;;6.23;;
9409;SDS011;4744;52.576;13.568;2022-11-18T11:34:53;6.22;;;5.63;;
9409;SDS011;4744;52.576;13.568;2022-11-18T11:37:29;7.88;;;7.07;;
9409;SDS011;4744;52.576;13.568;2022-11-18T11:40:15;5.97;;;5.37;;
9409;SDS011;4744;52.576;13.568;2022-11-18T11:42:53;5.70;;;5.13;;
9409;SDS011;4744;52.576;13.568;2022-11-18T11:45:30;6.85;;;5.68;;
9409;SDS011;4744;52.576;13.568;2022-11-18T11:48:10;5.57;;;4.70;;
9409;SDS011;4744;52.576;13.568;2022-11-18T11:50:47;5.72;;;5.07;;
9409;SDS011;4744;52.576;13.568;2022-11-18T11:53:34;5.13;;;4.60;;
9409;SDS011;4744;52.576;13.568;2022-11-18T11:56:16;5.63;;;4.90;;
9409;SDS011;4744;52.576;13.568;2022-11-18T11:58:52;5.30;;;4.30;;
9409;SDS011;4744;52.576;13.568;2022-11-18T12:01:34;4.97;;;4.47;;
9409;SDS011;4744;52.576;13.568;2022-11-18T12:04:11;5.65;;;4.85;;
9409;SDS011;4744;52.576;13.568;2022-11-18T12:06:49;5.33;;;4.83;;
9409;SDS011;4744;52.576;13.568;2022-11-18T12:09:20;6.22;;;4.82;;
9409;SDS011;4744;52.576;13.568;2022-11-18T12:11:52;5.03;;;4.53;;
9409;SDS011;4744;52.576;13.568;2022-11-18T12:14:25;5.23;;;4.73;;
9409;SDS011;4744;52.576;13.568;2022-11-18T12:16:59;4.93;;;4.53;;
9409;SDS011;4744;52.576;13.568;2022-11-18T12:19:35;5.05;;;4.53;;
9409;SDS011;4744;52.576;13.568;2022-11-18T12:22:04;5.13;;;4.60;;
9409;SDS011;4744;52.576;13.568;2022-11-18T12:24:37;5.22;;;4.72;;
9409;SDS011;4744;52.576;13.568;2022-11-18T12:27:05;7.60;;;5.57;;
9409;SDS011;4744;52.576;13.568;2022-11-18T12:29:41;5.30;;;4.80;;
9409;SDS011;4744;52.576;13.568;2022-11-18T12:32:30;4.93;;;4.53;;
9409;SDS011;4744;52.576;13.568;2022-11-18T12:35:01;4.60;;;4.20;;
9409;SDS011;4744;52.576;13.568;2022-11-18T12:37:38;5.03;;;4.57;;
9409;SDS011;4744;52.576;13.568;2022-11-18T12:44:05;4.90;;;4.50;;
9409;SDS011;4744;52.576;13.568;2022-11-18T12:55:29;6.90;;;4.50;;
9409;SDS011;4744;52.576;13.568;2022-11-18T12:57:57;4.73;;;4.23;;
9409;SDS011;4744;52.576;13.568;2022-11-18T13:00:29;5.03;;;4.63;;
9409;SDS011;4744;52.576;13.568;2022-11-18T13:02:57;4.80;;;4.40;;
9409;SDS011;4744;52.576;13.568;2022-11-18T13:05:27;4.77;;;3.93;;
9409;SDS011;4744;52.576;13.568;2022-11-18T13:07:57;4.47;;;4.07;;
9409;SDS011;4744;52.576;13.568;2022-11-18T13:10:44;4.18;;;3.88;;
9409;SDS011;4744;52.576;13.568;2022-11-18T13:13:18;5.90;;;5.40;;
9409;SDS011;4744;52.576;13.568;2022-11-18T13:15:51;4.63;;;4.23;;
9409;SDS011;4744;52.576;13.568;2022-11-18T13:18:46;5.78;;;4.68;;
9409;SDS011;4744;52.576;13.568;2022-11-18T13:21:19;4.43;;;3.90;;
9409;SDS011;4744;52.576;13.568;2022-11-18T13:24:05;4.67;;;4.27;;
9409;SDS011;4744;52.576;13.568;2022-11-18T13:26:37;4.40;;;4.00;;
9409;SDS011;4744;52.576;13.568;2022-11-18T13:31:57;4.10;;;3.70;;
9409;SDS011;4744;52.576;13.568;2022-11-18T13:34:36;3.42;;;3.13;;
9409;SDS011;4744;52.576;13.568;2022-11-18T13:37:14;4.28;;;3.92;;
9409;SDS011;4744;52.576;13.568;2022-11-18T13:39:44;5.10;;;3.53;;
9409;SDS011;4744;52.576;13.568;2022-11-18T13:42:15;3.78;;;3.47;;
9409;SDS011;4744;52.576;13.568;2022-11-18T13:44:44;3.50;;;3.20;;
9409;SDS011;4744;52.576;13.568;2022-11-18T13:47:19;4.80;;;4.30;;
9409;SDS011;4744;52.576;13.568;2022-11-18T13:50:02;3.83;;;3.53;;
9409;SDS011;4744;52.576;13.568;2022-11-18T13:52:37;4.28;;;3.88;;
9409;SDS011;4744;52.576;13.568;2022-11-18T13:55:11;4.35;;;3.75;;
9409;SDS011;4744;52.576;13.568;2022-11-18T13:57:45;3.58;;;3.28;;
9409;SDS011;4744;52.576;13.568;2022-11-18T14:00:19;4.03;;;3.63;;
9409;SDS011;4744;52.576;13.568;2022-11-18T14:02:48;3.93;;;3.57;;
9409;SDS011;4744;52.576;13.568;2022-11-18T14:05:21;3.47;;;3.17;;
9409;SDS011;4744;52.576;13.568;2022-11-18T14:07:59;3.37;;;3.17;;
9409;SDS011;4744;52.576;13.568;2022-11-18T14:10:29;3.60;;;3.30;;
9409;SDS011;4744;52.576;13.568;2022-11-18T14:13:17;3.42;;;3.22;;
9409;SDS011;4744;52.576;13.568;2022-11-18T14:15:48;3.50;;;3.30;;
9409;SDS011;4744;52.576;13.568;2022-11-18T14:18:17;3.65;;;3.35;;
9409;SDS011;4744;52.576;13.568;2022-11-18T14:20:53;3.85;;;3.53;;
9409;SDS011;4744;52.576;13.568;2022-11-18T14:23:24;3.40;;;3.10;;
9409;SDS011;4744;52.576;13.568;2022-11-18T14:25:55;3.70;;;3.40;;
9409;SDS011;4744;52.576;13.568;2022-11-18T14:28:24;3.67;;;3.38;;
9409;SDS011;4744;52.576;13.568;2022-11-18T14:31:02;3.20;;;3.00;;
9409;SDS011;4744;52.576;13.568;2022-11-18T14:33:31;3.30;;;3.10;;
9409;SDS011;4744;52.576;13.568;2022-11-18T14:36:00;3.15;;;2.85;;
9409;SDS011;4744;52.576;13.568;2022-11-18T14:38:29;3.50;;;3.20;;
9409;SDS011;4744;52.576;13.568;2022-11-18T14:41:06;3.60;;;3.30;;
9409;SDS011;4744;52.576;13.568;2022-11-18T14:43:34;3.17;;;2.97;;
9409;SDS011;4744;52.576;13.568;2022-11-18T14:46:02;3.33;;;3.03;;
9409;SDS011;4744;52.576;13.568;2022-11-18T14:48:30;2.85;;;2.65;;
9409;SDS011;4744;52.576;13.568;2022-11-18T14:50:57;3.35;;;3.05;;
9409;SDS011;4744;52.576;13.568;2022-11-18T14:53:25;2.80;;;2.60;;
9409;SDS011;4744;52.576;13.568;2022-11-18T14:55:52;2.80;;;2.60;;
9409;SDS011;4744;52.576;13.568;2022-11-18T14:58:23;2.78;;;2.58;;
9409;SDS011;4744;52.576;13.568;2022-11-18T15:00:50;2.80;;;2.60;;
9409;SDS011;4744;52.576;13.568;2022-11-18T15:03:18;2.50;;;2.30;;
9409;SDS011;4744;52.576;13.568;2022-11-18T15:05:45;2.93;;;2.63;;
9409;SDS011;4744;52.576;13.568;2022-11-18T15:08:12;3.00;;;2.80;;
9409;SDS011;4744;52.576;13.568;2022-11-18T15:10:40;2.70;;;2.50;;
9409;SDS011;4744;52.576;13.568;2022-11-18T15:13:07;3.20;;;2.90;;
9409;SDS011;4744;52.576;13.568;2022-11-18T15:15:35;2.60;;;2.40;;
9409;SDS011;4744;52.576;13.568;2022-11-18T15:18:02;2.28;;;2.08;;
9409;SDS011;4744;52.576;13.568;2022-11-18T15:20:29;2.50;;;2.30;;
9409;SDS011;4744;52.576;13.568;2022-11-18T15:22:56;2.90;;;2.70;;
9409;SDS011;4744;52.576;13.568;2022-11-18T15:25:23;2.87;;;2.67;;
9409;SDS011;4744;52.576;13.568;2022-11-18T15:27:50;2.53;;;2.33;;